sensor_id;sensor_type;location;lat;lon;timestamp;P1;durP1;ratioP1;P2;durP2;ratioP2
43150;SDS011;28755;51.478;5.702;2022-12-13T00:00:12;54.55;;;26.98;;
43150;SDS011;28755;51.478;5.702;2022-12-13T00:02:41;54.05;;;26.23;;
43150;SDS011;28755;51.478;5.702;2022-12-13T00:05:11;53.20;;;26.35;;
43150;SDS011;28755;51.478;5.702;2022-12-13T00:07:37;49.85;;;24.38;;
43150;SDS011;28755;51.478;5.702;2022-12-13T00:10:04;47.10;;;23.40;;
43150;SDS011;28755;51.478;5.702;2022-12-13T00:12:30;50.00;;;23.85;;
43150;SDS011;28755;51.478;5.702;2022-12-13T00:14:56;46.17;;;23.25;;
43150;SDS011;28755;51.478;5.702;2022-12-13T00:17:21;48.72;;;24.23;;
43150;SDS011;28755;51.478;5.702;2022-12-13T00:19:47;47.30;;;23.60;;
43150;SDS011;28755;51.478;5.702;2022-12-13T00:22:13;42.28;;;22.13;;
43150;SDS011;28755;51.478;5.702;2022-12-13T00:24:41;46.63;;;23.30;;
43150;SDS011;28755;51.478;5.702;2022-12-13T00:27:07;48.17;;;23.55;;
43150;SDS011;28755;51.478;5.702;2022-12-13T00:29:33;45.72;;;23.42;;
43150;SDS011;28755;51.478;5.702;2022-12-13T00:31:58;48.60;;;24.00;;
43150;SDS011;28755;51.478;5.702;2022-12-13T00:34:24;45.63;;;23.67;;
43150;SDS011;28755;51.478;5.702;2022-12-13T00:36:50;46.88;;;23.73;;
43150;SDS011;28755;51.478;5.702;2022-12-13T00:39:17;44.25;;;23.98;;
43150;SDS011;28755;51.478;5.702;2022-12-13T00:41:43;46.72;;;23.52;;
43150;SDS011;28755;51.478;5.702;2022-12-13T00:44:09;48.15;;;23.98;;
43150;SDS011;28755;51.478;5.702;2022-12-13T00:46:36;43.85;;;22.45;;
43150;SDS011;28755;51.478;5.702;2022-12-13T00:49:03;41.40;;;22.33;;
43150;SDS011;28755;51.478;5.702;2022-12-13T00:51:30;37.85;;;20.15;;
43150;SDS011;28755;51.478;5.702;2022-12-13T00:53:57;41.85;;;21.75;;
43150;SDS011;28755;51.478;5.702;2022-12-13T00:56:26;39.83;;;21.63;;
43150;SDS011;28755;51.478;5.702;2022-12-13T00:58:53;37.92;;;20.75;;
43150;SDS011;28755;51.478;5.702;2022-12-13T01:01:21;40.60;;;20.25;;
43150;SDS011;28755;51.478;5.702;2022-12-13T01:03:48;41.47;;;19.98;;
43150;SDS011;28755;51.478;5.702;2022-12-13T01:06:16;39.90;;;19.48;;
43150;SDS011;28755;51.478;5.702;2022-12-13T01:08:43;44.80;;;20.52;;
43150;SDS011;28755;51.478;5.702;2022-12-13T01:11:10;39.83;;;20.98;;
43150;SDS011;28755;51.478;5.702;2022-12-13T01:13:36;37.88;;;19.98;;
43150;SDS011;28755;51.478;5.702;2022-12-13T01:16:03;38.10;;;19.50;;
43150;SDS011;28755;51.478;5.702;2022-12-13T01:18:30;40.97;;;20.38;;
43150;SDS011;28755;51.478;5.702;2022-12-13T01:21:00;43.40;;;22.08;;
43150;SDS011;28755;51.478;5.702;2022-12-13T01:23:28;40.95;;;21.45;;
43150;SDS011;28755;51.478;5.702;2022-12-13T01:25:54;44.53;;;22.60;;
43150;SDS011;28755;51.478;5.702;2022-12-13T01:28:21;40.17;;;21.55;;
43150;SDS011;28755;51.478;5.702;2022-12-13T01:30:54;39.85;;;21.55;;
43150;SDS011;28755;51.478;5.702;2022-12-13T01:33:27;43.45;;;20.30;;
43150;SDS011;28755;51.478;5.702;2022-12-13T01:35:53;40.55;;;21.02;;
43150;SDS011;28755;51.478;5.702;2022-12-13T01:38:19;41.72;;;21.60;;
43150;SDS011;28755;51.478;5.702;2022-12-13T01:40:48;41.55;;;21.77;;
43150;SDS011;28755;51.478;5.702;2022-12-13T01:43:21;41.83;;;21.25;;
43150;SDS011;28755;51.478;5.702;2022-12-13T01:46:14;40.67;;;20.60;;
43150;SDS011;28755;51.478;5.702;2022-12-13T01:48:41;44.40;;;21.05;;
43150;SDS011;28755;51.478;5.702;2022-12-13T01:51:16;44.05;;;22.08;;
43150;SDS011;28755;51.478;5.702;2022-12-13T01:53:45;44.85;;;21.95;;
43150;SDS011;28755;51.478;5.702;2022-12-13T01:56:13;45.80;;;21.65;;
43150;SDS011;28755;51.478;5.702;2022-12-13T01:58:43;43.63;;;21.95;;
43150;SDS011;28755;51.478;5.702;2022-12-13T02:01:11;42.63;;;21.30;;
43150;SDS011;28755;51.478;5.702;2022-12-13T02:03:37;43.17;;;21.45;;
43150;SDS011;28755;51.478;5.702;2022-12-13T02:06:13;42.50;;;21.08;;
43150;SDS011;28755;51.478;5.702;2022-12-13T02:08:42;49.20;;;23.38;;
43150;SDS011;28755;51.478;5.702;2022-12-13T02:11:10;42.90;;;21.35;;
43150;SDS011;28755;51.478;5.702;2022-12-13T02:13:37;44.65;;;22.27;;
43150;SDS011;28755;51.478;5.702;2022-12-13T02:16:21;48.85;;;21.92;;
43150;SDS011;28755;51.478;5.702;2022-12-13T02:24:36;46.35;;;22.23;;
43150;SDS011;28755;51.478;5.702;2022-12-13T02:27:12;41.30;;;20.70;;
43150;SDS011;28755;51.478;5.702;2022-12-13T02:29:54;40.03;;;20.63;;
43150;SDS011;28755;51.478;5.702;2022-12-13T02:33:05;40.97;;;22.20;;
43150;SDS011;28755;51.478;5.702;2022-12-13T02:38:36;44.05;;;21.60;;
43150;SDS011;28755;51.478;5.702;2022-12-13T02:41:32;49.35;;;21.85;;
43150;SDS011;28755;51.478;5.702;2022-12-13T02:45:02;43.08;;;22.05;;
43150;SDS011;28755;51.478;5.702;2022-12-13T02:47:05;44.83;;;22.70;;
43150;SDS011;28755;51.478;5.702;2022-12-13T02:49:40;44.17;;;21.63;;
43150;SDS011;28755;51.478;5.702;2022-12-13T02:52:11;48.75;;;22.40;;
43150;SDS011;28755;51.478;5.702;2022-12-13T02:54:38;42.60;;;22.73;;
43150;SDS011;28755;51.478;5.702;2022-12-13T02:57:25;48.47;;;21.48;;
43150;SDS011;28755;51.478;5.702;2022-12-13T03:00:11;36.63;;;20.67;;
43150;SDS011;28755;51.478;5.702;2022-12-13T03:08:23;42.20;;;21.77;;
43150;SDS011;28755;51.478;5.702;2022-12-13T03:13:55;44.47;;;21.85;;
43150;SDS011;28755;51.478;5.702;2022-12-13T03:21:37;40.92;;;20.42;;
43150;SDS011;28755;51.478;5.702;2022-12-13T03:24:04;38.17;;;20.33;;
43150;SDS011;28755;51.478;5.702;2022-12-13T03:26:32;38.67;;;20.45;;
43150;SDS011;28755;51.478;5.702;2022-12-13T03:28:59;40.75;;;20.58;;
43150;SDS011;28755;51.478;5.702;2022-12-13T03:31:25;40.63;;;20.00;;
43150;SDS011;28755;51.478;5.702;2022-12-13T03:33:51;38.95;;;19.48;;
43150;SDS011;28755;51.478;5.702;2022-12-13T03:36:16;38.78;;;19.55;;
43150;SDS011;28755;51.478;5.702;2022-12-13T03:38:44;43.47;;;20.63;;
43150;SDS011;28755;51.478;5.702;2022-12-13T03:41:12;44.92;;;21.42;;
43150;SDS011;28755;51.478;5.702;2022-12-13T03:43:41;39.40;;;20.70;;
43150;SDS011;28755;51.478;5.702;2022-12-13T03:46:07;38.95;;;20.65;;
43150;SDS011;28755;51.478;5.702;2022-12-13T03:48:33;44.75;;;20.15;;
43150;SDS011;28755;51.478;5.702;2022-12-13T03:50:59;45.35;;;20.63;;
43150;SDS011;28755;51.478;5.702;2022-12-13T03:53:25;42.50;;;20.30;;
43150;SDS011;28755;51.478;5.702;2022-12-13T03:55:51;40.55;;;20.55;;
43150;SDS011;28755;51.478;5.702;2022-12-13T03:58:16;41.33;;;19.98;;
43150;SDS011;28755;51.478;5.702;2022-12-13T04:00:42;39.28;;;20.52;;
43150;SDS011;28755;51.478;5.702;2022-12-13T04:03:08;37.63;;;20.80;;
43150;SDS011;28755;51.478;5.702;2022-12-13T04:05:34;37.65;;;20.13;;
43150;SDS011;28755;51.478;5.702;2022-12-13T04:07:59;42.20;;;19.92;;
43150;SDS011;28755;51.478;5.702;2022-12-13T04:10:25;38.78;;;20.65;;
43150;SDS011;28755;51.478;5.702;2022-12-13T04:12:51;35.83;;;19.05;;
43150;SDS011;28755;51.478;5.702;2022-12-13T04:15:36;41.33;;;19.55;;
43150;SDS011;28755;51.478;5.702;2022-12-13T04:18:01;43.38;;;21.60;;
43150;SDS011;28755;51.478;5.702;2022-12-13T04:20:27;42.70;;;22.23;;
43150;SDS011;28755;51.478;5.702;2022-12-13T04:22:53;37.72;;;19.52;;
43150;SDS011;28755;51.478;5.702;2022-12-13T04:25:19;42.80;;;21.38;;
43150;SDS011;28755;51.478;5.702;2022-12-13T04:27:45;40.95;;;20.73;;
43150;SDS011;28755;51.478;5.702;2022-12-13T04:30:10;46.85;;;23.15;;
43150;SDS011;28755;51.478;5.702;2022-12-13T04:32:36;40.78;;;21.08;;
43150;SDS011;28755;51.478;5.702;2022-12-13T04:35:02;43.13;;;22.15;;
43150;SDS011;28755;51.478;5.702;2022-12-13T04:37:28;42.83;;;21.20;;
43150;SDS011;28755;51.478;5.702;2022-12-13T04:39:54;46.42;;;22.77;;
43150;SDS011;28755;51.478;5.702;2022-12-13T04:42:20;45.97;;;23.45;;
43150;SDS011;28755;51.478;5.702;2022-12-13T04:44:45;45.65;;;23.02;;
43150;SDS011;28755;51.478;5.702;2022-12-13T04:47:13;44.65;;;22.08;;
43150;SDS011;28755;51.478;5.702;2022-12-13T04:49:39;43.72;;;22.00;;
43150;SDS011;28755;51.478;5.702;2022-12-13T04:52:05;42.22;;;22.13;;
43150;SDS011;28755;51.478;5.702;2022-12-13T04:54:30;45.90;;;22.73;;
43150;SDS011;28755;51.478;5.702;2022-12-13T04:56:56;52.78;;;24.73;;
43150;SDS011;28755;51.478;5.702;2022-12-13T04:59:22;47.40;;;22.25;;
43150;SDS011;28755;51.478;5.702;2022-12-13T05:01:48;47.78;;;23.55;;
43150;SDS011;28755;51.478;5.702;2022-12-13T05:04:13;46.10;;;24.70;;
43150;SDS011;28755;51.478;5.702;2022-12-13T05:06:39;43.15;;;22.67;;
43150;SDS011;28755;51.478;5.702;2022-12-13T05:09:04;47.85;;;23.52;;
43150;SDS011;28755;51.478;5.702;2022-12-13T05:11:31;45.60;;;23.92;;
43150;SDS011;28755;51.478;5.702;2022-12-13T05:13:57;50.65;;;23.55;;
43150;SDS011;28755;51.478;5.702;2022-12-13T05:16:23;49.95;;;24.92;;
43150;SDS011;28755;51.478;5.702;2022-12-13T05:18:49;49.03;;;24.20;;
43150;SDS011;28755;51.478;5.702;2022-12-13T05:21:15;47.05;;;24.08;;
43150;SDS011;28755;51.478;5.702;2022-12-13T05:23:41;49.45;;;24.10;;
43150;SDS011;28755;51.478;5.702;2022-12-13T05:26:06;47.15;;;25.17;;
43150;SDS011;28755;51.478;5.702;2022-12-13T05:28:32;47.97;;;23.67;;
43150;SDS011;28755;51.478;5.702;2022-12-13T05:31:05;43.60;;;23.13;;
43150;SDS011;28755;51.478;5.702;2022-12-13T05:33:35;53.00;;;26.17;;
43150;SDS011;28755;51.478;5.702;2022-12-13T05:36:01;52.80;;;25.27;;
43150;SDS011;28755;51.478;5.702;2022-12-13T05:38:28;52.05;;;25.38;;
43150;SDS011;28755;51.478;5.702;2022-12-13T05:40:54;50.85;;;24.50;;
43150;SDS011;28755;51.478;5.702;2022-12-13T05:43:19;54.42;;;25.67;;
43150;SDS011;28755;51.478;5.702;2022-12-13T05:45:45;51.30;;;25.65;;
43150;SDS011;28755;51.478;5.702;2022-12-13T05:48:11;53.28;;;25.60;;
43150;SDS011;28755;51.478;5.702;2022-12-13T05:50:36;50.90;;;26.38;;
43150;SDS011;28755;51.478;5.702;2022-12-13T05:53:02;51.30;;;25.45;;
43150;SDS011;28755;51.478;5.702;2022-12-13T05:55:28;58.20;;;26.73;;
43150;SDS011;28755;51.478;5.702;2022-12-13T05:57:54;53.03;;;26.10;;
43150;SDS011;28755;51.478;5.702;2022-12-13T06:00:20;51.20;;;25.08;;
43150;SDS011;28755;51.478;5.702;2022-12-13T06:02:48;48.95;;;24.98;;
43150;SDS011;28755;51.478;5.702;2022-12-13T06:05:14;52.25;;;26.08;;
43150;SDS011;28755;51.478;5.702;2022-12-13T06:07:53;53.28;;;26.63;;
43150;SDS011;28755;51.478;5.702;2022-12-13T06:10:52;55.03;;;26.42;;
43150;SDS011;28755;51.478;5.702;2022-12-13T06:13:21;51.95;;;25.63;;
43150;SDS011;28755;51.478;5.702;2022-12-13T06:15:47;54.08;;;26.60;;
43150;SDS011;28755;51.478;5.702;2022-12-13T06:18:13;52.25;;;27.58;;
43150;SDS011;28755;51.478;5.702;2022-12-13T06:20:38;53.88;;;27.17;;
43150;SDS011;28755;51.478;5.702;2022-12-13T06:23:04;53.25;;;26.30;;
43150;SDS011;28755;51.478;5.702;2022-12-13T06:25:29;50.45;;;27.30;;
43150;SDS011;28755;51.478;5.702;2022-12-13T06:27:55;53.45;;;26.88;;
43150;SDS011;28755;51.478;5.702;2022-12-13T06:30:20;54.53;;;27.23;;
43150;SDS011;28755;51.478;5.702;2022-12-13T06:32:47;58.85;;;27.83;;
43150;SDS011;28755;51.478;5.702;2022-12-13T06:35:14;52.63;;;26.85;;
43150;SDS011;28755;51.478;5.702;2022-12-13T06:37:39;54.78;;;26.52;;
43150;SDS011;28755;51.478;5.702;2022-12-13T06:40:05;58.50;;;26.50;;
43150;SDS011;28755;51.478;5.702;2022-12-13T06:42:31;57.17;;;27.33;;
43150;SDS011;28755;51.478;5.702;2022-12-13T06:44:57;62.33;;;29.05;;
43150;SDS011;28755;51.478;5.702;2022-12-13T06:47:24;59.40;;;28.05;;
43150;SDS011;28755;51.478;5.702;2022-12-13T06:49:50;59.42;;;28.08;;
43150;SDS011;28755;51.478;5.702;2022-12-13T06:52:15;62.10;;;28.40;;
43150;SDS011;28755;51.478;5.702;2022-12-13T06:54:41;57.80;;;27.42;;
43150;SDS011;28755;51.478;5.702;2022-12-13T06:57:07;55.47;;;28.13;;
43150;SDS011;28755;51.478;5.702;2022-12-13T06:59:34;56.33;;;27.70;;
43150;SDS011;28755;51.478;5.702;2022-12-13T07:02:00;58.28;;;27.95;;
43150;SDS011;28755;51.478;5.702;2022-12-13T07:04:25;51.10;;;26.77;;
43150;SDS011;28755;51.478;5.702;2022-12-13T07:06:51;52.45;;;27.70;;
43150;SDS011;28755;51.478;5.702;2022-12-13T07:09:17;54.45;;;27.40;;
43150;SDS011;28755;51.478;5.702;2022-12-13T07:11:42;59.13;;;28.75;;
43150;SDS011;28755;51.478;5.702;2022-12-13T07:14:08;60.10;;;28.90;;
43150;SDS011;28755;51.478;5.702;2022-12-13T07:16:34;55.55;;;28.40;;
43150;SDS011;28755;51.478;5.702;2022-12-13T07:19:00;64.38;;;29.20;;
43150;SDS011;28755;51.478;5.702;2022-12-13T07:21:27;61.75;;;29.58;;
43150;SDS011;28755;51.478;5.702;2022-12-13T07:23:53;59.10;;;28.38;;
43150;SDS011;28755;51.478;5.702;2022-12-13T07:26:19;63.03;;;28.55;;
43150;SDS011;28755;51.478;5.702;2022-12-13T07:28:45;60.97;;;29.05;;
43150;SDS011;28755;51.478;5.702;2022-12-13T07:31:11;64.10;;;28.33;;
43150;SDS011;28755;51.478;5.702;2022-12-13T07:33:37;58.28;;;28.17;;
43150;SDS011;28755;51.478;5.702;2022-12-13T07:36:04;52.17;;;27.23;;
43150;SDS011;28755;51.478;5.702;2022-12-13T07:38:38;62.60;;;29.70;;
43150;SDS011;28755;51.478;5.702;2022-12-13T07:41:05;58.00;;;30.58;;
43150;SDS011;28755;51.478;5.702;2022-12-13T07:43:31;59.20;;;28.73;;
43150;SDS011;28755;51.478;5.702;2022-12-13T07:45:58;63.92;;;29.77;;
43150;SDS011;28755;51.478;5.702;2022-12-13T07:48:25;58.55;;;28.10;;
43150;SDS011;28755;51.478;5.702;2022-12-13T07:50:51;57.42;;;29.70;;
43150;SDS011;28755;51.478;5.702;2022-12-13T07:53:17;62.30;;;29.00;;
43150;SDS011;28755;51.478;5.702;2022-12-13T07:55:43;62.88;;;30.60;;
43150;SDS011;28755;51.478;5.702;2022-12-13T07:58:10;64.45;;;29.63;;
43150;SDS011;28755;51.478;5.702;2022-12-13T08:00:40;66.15;;;30.17;;
43150;SDS011;28755;51.478;5.702;2022-12-13T08:03:07;61.92;;;30.75;;
43150;SDS011;28755;51.478;5.702;2022-12-13T08:05:33;66.93;;;32.17;;
43150;SDS011;28755;51.478;5.702;2022-12-13T08:08:00;63.95;;;31.73;;
43150;SDS011;28755;51.478;5.702;2022-12-13T08:10:27;67.20;;;31.60;;
43150;SDS011;28755;51.478;5.702;2022-12-13T08:12:53;65.55;;;31.30;;
43150;SDS011;28755;51.478;5.702;2022-12-13T08:15:19;58.85;;;31.75;;
43150;SDS011;28755;51.478;5.702;2022-12-13T08:17:45;71.68;;;32.08;;
43150;SDS011;28755;51.478;5.702;2022-12-13T08:20:11;59.15;;;29.92;;
43150;SDS011;28755;51.478;5.702;2022-12-13T08:22:37;63.08;;;30.27;;
43150;SDS011;28755;51.478;5.702;2022-12-13T08:25:03;61.70;;;31.83;;
43150;SDS011;28755;51.478;5.702;2022-12-13T08:27:30;61.88;;;31.92;;
43150;SDS011;28755;51.478;5.702;2022-12-13T08:29:56;64.05;;;31.90;;
43150;SDS011;28755;51.478;5.702;2022-12-13T08:32:21;58.28;;;29.63;;
43150;SDS011;28755;51.478;5.702;2022-12-13T08:34:48;59.83;;;29.42;;
43150;SDS011;28755;51.478;5.702;2022-12-13T08:37:13;66.38;;;30.83;;
43150;SDS011;28755;51.478;5.702;2022-12-13T08:39:39;58.45;;;30.58;;
43150;SDS011;28755;51.478;5.702;2022-12-13T08:42:06;55.85;;;28.85;;
43150;SDS011;28755;51.478;5.702;2022-12-13T08:44:35;57.80;;;29.27;;
43150;SDS011;28755;51.478;5.702;2022-12-13T08:47:00;55.22;;;28.73;;
43150;SDS011;28755;51.478;5.702;2022-12-13T08:49:26;50.13;;;27.00;;
43150;SDS011;28755;51.478;5.702;2022-12-13T08:51:51;54.90;;;27.30;;
43150;SDS011;28755;51.478;5.702;2022-12-13T08:54:17;50.47;;;26.88;;
43150;SDS011;28755;51.478;5.702;2022-12-13T08:56:42;50.85;;;26.45;;
43150;SDS011;28755;51.478;5.702;2022-12-13T08:59:08;53.20;;;27.80;;
43150;SDS011;28755;51.478;5.702;2022-12-13T09:01:34;44.25;;;24.08;;
43150;SDS011;28755;51.478;5.702;2022-12-13T09:03:59;46.15;;;25.33;;
43150;SDS011;28755;51.478;5.702;2022-12-13T09:06:25;45.03;;;23.92;;
43150;SDS011;28755;51.478;5.702;2022-12-13T09:08:53;41.88;;;23.45;;
43150;SDS011;28755;51.478;5.702;2022-12-13T09:11:19;41.72;;;24.02;;
43150;SDS011;28755;51.478;5.702;2022-12-13T09:13:45;43.75;;;23.15;;
43150;SDS011;28755;51.478;5.702;2022-12-13T09:16:12;46.45;;;24.90;;
43150;SDS011;28755;51.478;5.702;2022-12-13T09:18:39;44.30;;;23.85;;
43150;SDS011;28755;51.478;5.702;2022-12-13T09:21:06;45.22;;;23.67;;
43150;SDS011;28755;51.478;5.702;2022-12-13T09:23:32;40.65;;;23.38;;
43150;SDS011;28755;51.478;5.702;2022-12-13T09:25:58;44.17;;;25.13;;
43150;SDS011;28755;51.478;5.702;2022-12-13T09:28:25;43.80;;;23.90;;
43150;SDS011;28755;51.478;5.702;2022-12-13T09:30:51;42.95;;;22.50;;
43150;SDS011;28755;51.478;5.702;2022-12-13T09:33:17;47.88;;;25.10;;
43150;SDS011;28755;51.478;5.702;2022-12-13T09:35:42;40.63;;;23.88;;
43150;SDS011;28755;51.478;5.702;2022-12-13T09:38:08;38.05;;;22.80;;
43150;SDS011;28755;51.478;5.702;2022-12-13T09:40:34;44.45;;;23.45;;
43150;SDS011;28755;51.478;5.702;2022-12-13T09:43:02;39.38;;;22.45;;
43150;SDS011;28755;51.478;5.702;2022-12-13T09:45:29;42.95;;;22.92;;
43150;SDS011;28755;51.478;5.702;2022-12-13T09:47:55;39.17;;;23.63;;
43150;SDS011;28755;51.478;5.702;2022-12-13T09:50:32;40.83;;;23.40;;
43150;SDS011;28755;51.478;5.702;2022-12-13T09:53:00;39.78;;;23.55;;
43150;SDS011;28755;51.478;5.702;2022-12-13T09:55:33;38.90;;;22.42;;
43150;SDS011;28755;51.478;5.702;2022-12-13T10:00:50;38.47;;;23.40;;
43150;SDS011;28755;51.478;5.702;2022-12-13T10:03:19;38.25;;;23.02;;
43150;SDS011;28755;51.478;5.702;2022-12-13T10:06:11;37.20;;;22.75;;
43150;SDS011;28755;51.478;5.702;2022-12-13T10:08:40;35.38;;;22.25;;
43150;SDS011;28755;51.478;5.702;2022-12-13T10:11:16;43.45;;;23.50;;
43150;SDS011;28755;51.478;5.702;2022-12-13T10:16:39;34.50;;;21.38;;
43150;SDS011;28755;51.478;5.702;2022-12-13T10:19:16;37.08;;;21.70;;
43150;SDS011;28755;51.478;5.702;2022-12-13T10:21:46;37.25;;;21.95;;
43150;SDS011;28755;51.478;5.702;2022-12-13T10:24:14;35.88;;;22.17;;
43150;SDS011;28755;51.478;5.702;2022-12-13T10:26:46;34.45;;;21.42;;
43150;SDS011;28755;51.478;5.702;2022-12-13T10:29:12;34.38;;;20.63;;
43150;SDS011;28755;51.478;5.702;2022-12-13T10:31:39;36.50;;;21.42;;
43150;SDS011;28755;51.478;5.702;2022-12-13T10:34:21;37.50;;;20.48;;
43150;SDS011;28755;51.478;5.702;2022-12-13T10:36:54;36.53;;;21.67;;
43150;SDS011;28755;51.478;5.702;2022-12-13T10:39:36;36.97;;;20.38;;
43150;SDS011;28755;51.478;5.702;2022-12-13T10:42:08;34.28;;;21.42;;
43150;SDS011;28755;51.478;5.702;2022-12-13T10:44:43;35.28;;;20.50;;
43150;SDS011;28755;51.478;5.702;2022-12-13T10:49:38;28.85;;;18.55;;
43150;SDS011;28755;51.478;5.702;2022-12-13T10:54:53;32.42;;;20.02;;
43150;SDS011;28755;51.478;5.702;2022-12-13T10:57:21;30.63;;;19.80;;
43150;SDS011;28755;51.478;5.702;2022-12-13T10:59:50;32.22;;;20.52;;
43150;SDS011;28755;51.478;5.702;2022-12-13T11:04:57;29.30;;;19.80;;
43150;SDS011;28755;51.478;5.702;2022-12-13T11:12:21;27.55;;;18.33;;
43150;SDS011;28755;51.478;5.702;2022-12-13T11:14:54;28.60;;;18.75;;
43150;SDS011;28755;51.478;5.702;2022-12-13T11:17:23;28.60;;;18.88;;
43150;SDS011;28755;51.478;5.702;2022-12-13T11:19:52;28.02;;;19.23;;
43150;SDS011;28755;51.478;5.702;2022-12-13T11:22:20;26.80;;;17.98;;
43150;SDS011;28755;51.478;5.702;2022-12-13T11:25:07;28.38;;;18.10;;
43150;SDS011;28755;51.478;5.702;2022-12-13T11:30:25;26.83;;;17.42;;
43150;SDS011;28755;51.478;5.702;2022-12-13T11:33:18;28.52;;;18.55;;
43150;SDS011;28755;51.478;5.702;2022-12-13T11:36:24;29.10;;;18.50;;
43150;SDS011;28755;51.478;5.702;2022-12-13T11:39:09;28.58;;;18.25;;
43150;SDS011;28755;51.478;5.702;2022-12-13T11:41:39;28.08;;;18.17;;
43150;SDS011;28755;51.478;5.702;2022-12-13T11:44:28;30.58;;;17.90;;
43150;SDS011;28755;51.478;5.702;2022-12-13T11:47:05;25.92;;;16.83;;
43150;SDS011;28755;51.478;5.702;2022-12-13T11:49:41;29.92;;;18.13;;
43150;SDS011;28755;51.478;5.702;2022-12-13T11:52:20;27.88;;;17.42;;
43150;SDS011;28755;51.478;5.702;2022-12-13T11:55:02;25.70;;;16.98;;
43150;SDS011;28755;51.478;5.702;2022-12-13T11:57:49;27.75;;;17.45;;
43150;SDS011;28755;51.478;5.702;2022-12-13T12:00:40;28.33;;;18.40;;
43150;SDS011;28755;51.478;5.702;2022-12-13T12:03:15;29.38;;;17.20;;
43150;SDS011;28755;51.478;5.702;2022-12-13T12:05:50;25.88;;;16.98;;
43150;SDS011;28755;51.478;5.702;2022-12-13T12:08:24;28.95;;;17.85;;
43150;SDS011;28755;51.478;5.702;2022-12-13T12:11:27;28.00;;;18.27;;
43150;SDS011;28755;51.478;5.702;2022-12-13T12:13:55;26.88;;;16.45;;
43150;SDS011;28755;51.478;5.702;2022-12-13T12:16:29;27.13;;;16.52;;
43150;SDS011;28755;51.478;5.702;2022-12-13T12:19:15;27.67;;;17.48;;
43150;SDS011;28755;51.478;5.702;2022-12-13T12:21:55;25.15;;;15.95;;
43150;SDS011;28755;51.478;5.702;2022-12-13T12:27:40;24.73;;;17.13;;
43150;SDS011;28755;51.478;5.702;2022-12-13T12:35:20;22.33;;;16.20;;
43150;SDS011;28755;51.478;5.702;2022-12-13T12:43:30;26.42;;;16.17;;
43150;SDS011;28755;51.478;5.702;2022-12-13T12:49:19;30.25;;;17.27;;
43150;SDS011;28755;51.478;5.702;2022-12-13T12:57:25;25.60;;;16.13;;
43150;SDS011;28755;51.478;5.702;2022-12-13T13:00:03;28.45;;;17.40;;
43150;SDS011;28755;51.478;5.702;2022-12-13T13:05:17;28.80;;;15.90;;
43150;SDS011;28755;51.478;5.702;2022-12-13T13:07:49;32.85;;;16.77;;
43150;SDS011;28755;51.478;5.702;2022-12-13T13:10:20;26.70;;;15.85;;
43150;SDS011;28755;51.478;5.702;2022-12-13T13:12:47;28.48;;;17.13;;
43150;SDS011;28755;51.478;5.702;2022-12-13T13:17:57;27.42;;;15.80;;
43150;SDS011;28755;51.478;5.702;2022-12-13T13:20:24;28.38;;;16.45;;
43150;SDS011;28755;51.478;5.702;2022-12-13T13:22:51;28.33;;;16.63;;
43150;SDS011;28755;51.478;5.702;2022-12-13T13:25:31;27.80;;;16.55;;
43150;SDS011;28755;51.478;5.702;2022-12-13T13:28:00;29.55;;;16.85;;
43150;SDS011;28755;51.478;5.702;2022-12-13T13:30:29;26.08;;;16.30;;
43150;SDS011;28755;51.478;5.702;2022-12-13T13:32:56;26.83;;;16.25;;
43150;SDS011;28755;51.478;5.702;2022-12-13T13:38:00;27.30;;;16.85;;
43150;SDS011;28755;51.478;5.702;2022-12-13T13:40:35;27.52;;;16.77;;
43150;SDS011;28755;51.478;5.702;2022-12-13T13:43:05;32.17;;;16.73;;
43150;SDS011;28755;51.478;5.702;2022-12-13T13:59:46;25.45;;;14.95;;
43150;SDS011;28755;51.478;5.702;2022-12-13T14:06:14;28.48;;;15.60;;
43150;SDS011;28755;51.478;5.702;2022-12-13T14:15:07;29.55;;;15.63;;
43150;SDS011;28755;51.478;5.702;2022-12-13T14:21:22;28.58;;;15.63;;
43150;SDS011;28755;51.478;5.702;2022-12-13T14:26:36;23.23;;;14.40;;
43150;SDS011;28755;51.478;5.702;2022-12-13T14:29:33;28.20;;;15.05;;
43150;SDS011;28755;51.478;5.702;2022-12-13T14:32:20;29.83;;;15.90;;
43150;SDS011;28755;51.478;5.702;2022-12-13T14:34:49;30.30;;;14.88;;
43150;SDS011;28755;51.478;5.702;2022-12-13T14:37:28;28.40;;;15.73;;
43150;SDS011;28755;51.478;5.702;2022-12-13T14:39:55;28.83;;;15.63;;
43150;SDS011;28755;51.478;5.702;2022-12-13T14:42:23;30.85;;;16.50;;
43150;SDS011;28755;51.478;5.702;2022-12-13T14:45:13;28.38;;;15.30;;
43150;SDS011;28755;51.478;5.702;2022-12-13T14:47:53;25.63;;;15.30;;
43150;SDS011;28755;51.478;5.702;2022-12-13T14:50:22;25.70;;;14.98;;
43150;SDS011;28755;51.478;5.702;2022-12-13T14:52:53;29.85;;;15.38;;
43150;SDS011;28755;51.478;5.702;2022-12-13T14:55:21;27.10;;;14.98;;
43150;SDS011;28755;51.478;5.702;2022-12-13T14:57:50;32.88;;;17.08;;
43150;SDS011;28755;51.478;5.702;2022-12-13T15:02:50;31.13;;;16.92;;
43150;SDS011;28755;51.478;5.702;2022-12-13T15:05:27;29.75;;;16.17;;
43150;SDS011;28755;51.478;5.702;2022-12-13T15:07:58;29.50;;;16.35;;
43150;SDS011;28755;51.478;5.702;2022-12-13T15:10:27;30.42;;;17.23;;
43150;SDS011;28755;51.478;5.702;2022-12-13T15:12:57;41.22;;;17.63;;
43150;SDS011;28755;51.478;5.702;2022-12-13T15:15:27;33.38;;;17.95;;
43150;SDS011;28755;51.478;5.702;2022-12-13T15:20:44;34.10;;;17.50;;
43150;SDS011;28755;51.478;5.702;2022-12-13T15:25:49;33.42;;;17.80;;
43150;SDS011;28755;51.478;5.702;2022-12-13T15:28:21;31.40;;;17.30;;
43150;SDS011;28755;51.478;5.702;2022-12-13T15:30:48;30.17;;;16.73;;
43150;SDS011;28755;51.478;5.702;2022-12-13T15:35:42;28.88;;;16.73;;
43150;SDS011;28755;51.478;5.702;2022-12-13T15:38:10;33.80;;;17.58;;
43150;SDS011;28755;51.478;5.702;2022-12-13T15:40:37;35.00;;;17.65;;
43150;SDS011;28755;51.478;5.702;2022-12-13T15:43:12;30.90;;;17.40;;
43150;SDS011;28755;51.478;5.702;2022-12-13T15:45:43;30.58;;;16.42;;
43150;SDS011;28755;51.478;5.702;2022-12-13T15:48:31;28.30;;;15.93;;
43150;SDS011;28755;51.478;5.702;2022-12-13T15:51:10;33.15;;;15.60;;
43150;SDS011;28755;51.478;5.702;2022-12-13T15:56:36;29.95;;;16.65;;
43150;SDS011;28755;51.478;5.702;2022-12-13T15:59:05;28.25;;;16.00;;
43150;SDS011;28755;51.478;5.702;2022-12-13T16:01:49;31.10;;;15.93;;
43150;SDS011;28755;51.478;5.702;2022-12-13T16:04:19;28.02;;;15.25;;
43150;SDS011;28755;51.478;5.702;2022-12-13T16:06:50;29.35;;;15.63;;
43150;SDS011;28755;51.478;5.702;2022-12-13T16:09:20;29.05;;;16.08;;
43150;SDS011;28755;51.478;5.702;2022-12-13T16:11:49;28.92;;;15.90;;
43150;SDS011;28755;51.478;5.702;2022-12-13T16:16:58;27.50;;;15.70;;
43150;SDS011;28755;51.478;5.702;2022-12-13T16:19:28;29.33;;;15.82;;
43150;SDS011;28755;51.478;5.702;2022-12-13T16:21:54;27.10;;;15.52;;
43150;SDS011;28755;51.478;5.702;2022-12-13T16:24:20;31.30;;;15.60;;
43150;SDS011;28755;51.478;5.702;2022-12-13T16:26:46;30.95;;;16.00;;
43150;SDS011;28755;51.478;5.702;2022-12-13T16:29:13;30.90;;;16.52;;
43150;SDS011;28755;51.478;5.702;2022-12-13T16:31:41;30.05;;;16.33;;
43150;SDS011;28755;51.478;5.702;2022-12-13T16:34:08;33.05;;;16.25;;
43150;SDS011;28755;51.478;5.702;2022-12-13T16:36:34;29.48;;;16.38;;